Time;durP1;ratioP1;P1;durP2;ratioP2;P2;SDS_P1;SDS_P2;PMS_P1;PMS_P2;Temp;Humidity;BMP_temperature;BMP_pressure;BME280_temperature;BME280_humidity;BME280_pressure;Samples;Min_cycle;Max_cycle;Signal;HPM_P1;HPM_P2
2023/05/07 00:00:46;;;;;;;12.37;9.10;;;8.40;99.90;;;;;;5051517;28;20527;-54
2023/05/07 00:03:13;;;;;;;9.77;8.57;;;8.40;99.90;;;;;;5046670;28;20571;-53
2023/05/07 00:05:41;;;;;;;8.57;7.73;;;8.40;99.90;;;;;;5049839;28;20461;-53
2023/05/07 00:08:07;;;;;;;12.13;7.93;;;8.40;99.90;;;;;;5048557;28;20489;-54
2023/05/07 00:10:34;;;;;;;10.23;8.60;;;8.40;99.90;;;;;;5049674;28;20891;-54
2023/05/07 00:13:01;;;;;;;12.00;8.10;;;8.40;99.90;;;;;;5048670;28;20489;-54
2023/05/07 00:15:27;;;;;;;8.33;7.53;;;8.40;99.90;;;;;;5050031;28;20958;-54
2023/05/07 00:17:54;;;;;;;12.70;8.00;;;8.40;99.90;;;;;;5042157;28;20569;-54
2023/05/07 00:20:21;;;;;;;8.80;7.90;;;8.30;99.90;;;;;;5041467;28;20489;-54
2023/05/07 00:22:48;;;;;;;9.07;8.17;;;8.40;99.90;;;;;;5049351;28;20647;-54
2023/05/07 00:25:15;;;;;;;8.60;7.70;;;8.40;99.90;;;;;;5051107;28;20556;-54
2023/05/07 00:27:41;;;;;;;14.60;8.50;;;8.40;99.90;;;;;;5049869;28;21087;-54
2023/05/07 00:30:09;;;;;;;9.57;8.57;;;8.40;99.90;;;;;;5051153;28;20541;-54
2023/05/07 00:32:36;;;;;;;9.30;8.40;;;8.40;99.90;;;;;;5051114;28;20479;-54
2023/05/07 00:35:03;;;;;;;8.77;6.93;;;8.40;99.90;;;;;;5039317;28;20917;-54
2023/05/07 00:37:29;;;;;;;8.83;7.80;;;8.40;99.90;;;;;;5051291;28;20568;-53
2023/05/07 00:39:57;;;;;;;10.70;7.67;;;8.40;99.90;;;;;;5049887;28;20803;-53
2023/05/07 00:42:24;;;;;;;9.60;7.43;;;8.40;99.90;;;;;;5051299;28;20574;-54
2023/05/07 00:44:51;;;;;;;8.17;7.50;;;8.50;99.90;;;;;;5050964;28;20453;-55
2023/05/07 00:47:17;;;;;;;8.27;7.50;;;8.40;99.90;;;;;;5048867;28;20563;-55
2023/05/07 00:49:45;;;;;;;8.30;7.47;;;8.50;99.90;;;;;;5050510;28;20880;-53
2023/05/07 00:52:14;;;;;;;12.93;7.50;;;8.40;99.90;;;;;;5040695;28;20999;-54
2023/05/07 00:54:42;;;;;;;8.63;6.87;;;8.30;99.90;;;;;;5039219;28;20547;-54
2023/05/07 00:57:10;;;;;;;8.10;7.30;;;8.20;99.90;;;;;;5050878;28;20579;-54
2023/05/07 00:59:37;;;;;;;7.33;6.70;;;8.20;99.90;;;;;;5048399;28;20456;-54
2023/05/07 01:02:04;;;;;;;7.80;7.10;;;8.20;99.90;;;;;;5052700;28;20568;-54
2023/05/07 01:04:31;;;;;;;7.97;7.13;;;8.20;99.90;;;;;;5047768;28;20497;-54
2023/05/07 01:06:59;;;;;;;8.60;7.70;;;8.20;99.90;;;;;;5053586;28;20505;-54
2023/05/07 01:09:26;;;;;;;12.13;7.03;;;8.20;99.90;;;;;;5047530;28;20536;-53
2023/05/07 01:11:54;;;;;;;10.90;6.63;;;8.30;99.90;;;;;;5042317;28;20943;-54
2023/05/07 01:14:22;;;;;;;7.07;6.47;;;8.30;99.90;;;;;;5049010;28;20546;-54
2023/05/07 01:16:50;;;;;;;8.57;7.33;;;8.30;99.90;;;;;;5051088;28;20487;-54
2023/05/07 01:19:19;;;;;;;13.97;7.90;;;8.30;99.90;;;;;;5049163;28;20456;-53
2023/05/07 01:21:48;;;;;;;8.87;8.07;;;8.30;99.90;;;;;;5052142;28;20487;-54
2023/05/07 01:24:16;;;;;;;10.70;7.00;;;8.30;99.90;;;;;;5052375;28;20588;-53
2023/05/07 01:26:44;;;;;;;7.73;6.87;;;8.30;99.90;;;;;;5052962;28;20521;-53
2023/05/07 01:29:11;;;;;;;6.80;6.10;;;8.30;99.90;;;;;;5053122;28;20460;-53
2023/05/07 01:31:39;;;;;;;11.60;8.00;;;8.30;99.90;;;;;;5046156;28;20469;-53
2023/05/07 01:34:08;;;;;;;10.53;7.37;;;8.30;99.90;;;;;;5048249;28;20497;-54
2023/05/07 01:36:36;;;;;;;8.90;7.33;;;8.30;99.90;;;;;;5049210;28;20498;-54
2023/05/07 01:39:03;;;;;;;7.53;6.60;;;8.40;99.90;;;;;;5052369;28;20536;-53
2023/05/07 01:41:31;;;;;;;10.33;7.60;;;8.40;99.90;;;;;;5050614;28;20939;-53
2023/05/07 01:44:00;;;;;;;11.27;7.43;;;8.30;99.90;;;;;;5053144;28;20862;-53
2023/05/07 01:46:27;;;;;;;7.50;6.80;;;8.30;99.90;;;;;;5052270;28;20545;-54
2023/05/07 01:48:54;;;;;;;10.50;7.00;;;8.30;99.90;;;;;;5049100;28;20466;-54
2023/05/07 01:51:22;;;;;;;11.73;7.90;;;8.20;99.90;;;;;;5048732;28;20556;-53
2023/05/07 01:53:50;;;;;;;8.37;7.13;;;8.30;99.90;;;;;;5051941;28;20981;-55
2023/05/07 01:56:17;;;;;;;7.87;7.00;;;8.30;99.90;;;;;;5053551;28;20490;-54
2023/05/07 01:58:45;;;;;;;12.07;7.13;;;8.40;99.90;;;;;;5054358;28;20463;-53
2023/05/07 02:01:11;;;;;;;8.33;7.47;;;8.30;99.90;;;;;;5053549;28;20466;-49
2023/05/07 02:03:38;;;;;;;11.07;7.57;;;8.30;99.90;;;;;;5057414;28;21169;-49
2023/05/07 02:06:05;;;;;;;9.40;6.87;;;8.30;99.90;;;;;;5053714;28;20551;-50
2023/05/07 02:08:31;;;;;;;9.63;6.90;;;8.30;99.90;;;;;;5048234;28;20570;-50
2023/05/07 02:10:58;;;;;;;12.20;7.93;;;8.30;99.90;;;;;;5050668;28;21101;-50
2023/05/07 02:13:25;;;;;;;10.40;7.73;;;8.40;99.90;;;;;;5059510;28;20487;-50
2023/05/07 02:15:53;;;;;;;7.63;6.93;;;8.40;99.90;;;;;;5056360;28;20476;-49
2023/05/07 02:18:20;;;;;;;8.73;7.93;;;8.30;99.90;;;;;;5060243;28;20533;-50
2023/05/07 02:20:46;;;;;;;9.23;8.33;;;8.30;99.90;;;;;;5058473;28;20500;-49
2023/05/07 02:23:13;;;;;;;7.77;7.10;;;8.30;99.90;;;;;;5054589;28;20524;-50
2023/05/07 02:25:39;;;;;;;9.80;7.43;;;8.30;97.20;;;;;;5051086;28;20927;-50
2023/05/07 02:28:06;;;;;;;13.43;7.97;;;8.30;99.90;;;;;;5052762;28;20525;-49
2023/05/07 02:30:32;;;;;;;9.27;8.10;;;8.30;99.90;;;;;;5061712;28;20544;-50
2023/05/07 02:33:00;;;;;;;8.47;7.67;;;8.30;77.90;;;;;;5052153;28;20446;-49
2023/05/07 02:35:27;;;;;;;8.87;7.43;;;8.30;81.80;;;;;;5049148;28;20639;-50
2023/05/07 02:37:53;;;;;;;15.37;6.40;;;8.30;72.10;;;;;;5050107;28;20521;-49
2023/05/07 02:40:20;;;;;;;7.93;7.23;;;8.30;29.60;;;;;;5050866;28;20561;-50
2023/05/07 02:42:47;;;;;;;8.20;7.40;;;8.30;34.60;;;;;;5052586;28;20575;-49
2023/05/07 02:45:14;;;;;;;7.50;6.90;;;8.30;29.70;;;;;;5049799;28;20547;-49
2023/05/07 02:47:41;;;;;;;8.37;7.57;;;8.30;30.90;;;;;;5048923;28;20561;-49
2023/05/07 02:50:09;;;;;;;7.67;7.00;;;8.30;33.40;;;;;;5046562;28;20529;-49
2023/05/07 02:52:36;;;;;;;8.47;7.63;;;8.30;31.10;;;;;;5051894;28;20532;-49
2023/05/07 02:55:02;;;;;;;7.87;6.77;;;8.30;29.90;;;;;;5044781;28;20548;-50
2023/05/07 02:57:29;;;;;;;7.27;6.33;;;8.30;37.40;;;;;;5049901;28;20475;-50
2023/05/07 02:59:55;;;;;;;7.73;7.03;;;8.30;34.50;;;;;;5051023;28;20942;-50
2023/05/07 03:02:22;;;;;;;7.47;6.17;;;8.30;39.20;;;;;;5049445;28;20528;-49
2023/05/07 03:04:49;;;;;;;6.87;6.30;;;8.30;42.20;;;;;;5049453;28;20463;-49
2023/05/07 03:07:17;;;;;;;14.80;7.47;;;8.30;44.90;;;;;;5045479;28;20559;-49
2023/05/07 03:09:43;;;;;;;8.83;7.30;;;8.30;50.60;;;;;;5042130;28;20495;-49
2023/05/07 03:12:10;;;;;;;7.37;6.60;;;8.30;44.80;;;;;;5051328;28;20552;-48
2023/05/07 03:14:36;;;;;;;11.93;6.13;;;8.30;42.50;;;;;;5048781;28;20465;-50
2023/05/07 03:17:03;;;;;;;8.23;6.87;;;8.30;38.90;;;;;;5049518;28;20563;-50
2023/05/07 03:19:30;;;;;;;6.93;6.43;;;8.30;38.00;;;;;;5049025;28;20467;-50
2023/05/07 03:21:56;;;;;;;7.93;6.50;;;8.30;35.70;;;;;;5048529;28;20491;-50
2023/05/07 03:24:24;;;;;;;8.43;6.80;;;8.20;42.40;;;;;;5052170;28;20566;-50
2023/05/07 03:26:51;;;;;;;11.47;7.00;;;8.20;41.40;;;;;;5047777;28;20495;-50
2023/05/07 03:29:17;;;;;;;7.17;6.37;;;8.30;37.20;;;;;;5050287;28;22357;-49
2023/05/07 03:31:44;;;;;;;8.93;6.10;;;8.20;37.80;;;;;;5047169;28;20942;-49
2023/05/07 03:34:11;;;;;;;7.23;5.93;;;8.20;46.60;;;;;;5052290;28;20468;-53
2023/05/07 03:36:38;;;;;;;7.67;5.83;;;8.30;45.00;;;;;;5047508;28;20608;-50
2023/05/07 03:39:04;;;;;;;6.50;6.00;;;8.20;47.40;;;;;;5095484;22;20877;-51
2023/05/07 03:41:33;;;;;;;6.97;5.83;;;8.20;54.00;;;;;;5066814;28;20456;-53
2023/05/07 03:44:00;;;;;;;6.73;6.13;;;8.30;46.80;;;;;;5067102;28;20570;-52
2023/05/07 03:46:28;;;;;;;5.73;5.20;;;8.30;46.20;;;;;;5061860;28;20467;-54
2023/05/07 03:48:54;;;;;;;6.07;5.47;;;8.30;45.60;;;;;;5069195;28;20511;-52
2023/05/07 03:51:21;;;;;;;9.00;5.70;;;8.30;47.90;;;;;;5071153;28;20554;-52
2023/05/07 03:53:47;;;;;;;8.70;5.63;;;8.30;46.00;;;;;;5069432;28;20504;-51
2023/05/07 03:56:14;;;;;;;6.33;5.77;;;8.30;50.30;;;;;;5068516;28;20491;-51
2023/05/07 03:58:41;;;;;;;6.37;5.73;;;8.30;46.50;;;;;;5069027;28;20928;-53
2023/05/07 04:01:08;;;;;;;8.13;6.27;;;8.30;45.80;;;;;;5070569;28;20554;-51
2023/05/07 04:03:35;;;;;;;8.30;6.23;;;8.30;46.30;;;;;;5068763;28;20487;-52
2023/05/07 04:06:01;;;;;;;12.40;5.47;;;8.30;50.20;;;;;;5068982;28;20555;-52
2023/05/07 04:08:28;;;;;;;7.10;5.50;;;8.30;46.60;;;;;;5070866;28;20510;-52
2023/05/07 04:10:58;;;;;;;6.60;4.90;;;8.30;46.70;;;;;;5070111;28;20539;-51
2023/05/07 04:13:24;;;;;;;7.00;5.33;;;8.30;48.40;;;;;;5063755;28;20560;-51
2023/05/07 04:15:52;;;;;;;6.00;5.40;;;8.30;51.40;;;;;;5069882;28;20460;-51
2023/05/07 04:18:19;;;;;;;6.47;5.90;;;8.30;49.00;;;;;;5070827;28;20559;-52
2023/05/07 04:20:46;;;;;;;7.00;5.80;;;8.30;52.90;;;;;;5068004;28;20459;-52
2023/05/07 04:23:12;;;;;;;6.30;5.80;;;8.30;49.20;;;;;;5066759;28;20917;-52
2023/05/07 04:25:39;;;;;;;10.30;5.70;;;8.30;58.40;;;;;;5066896;28;20500;-53
2023/05/07 04:28:06;;;;;;;5.57;4.93;;;8.40;54.40;;;;;;5067476;28;21062;-51
2023/05/07 04:30:32;;;;;;;7.07;5.27;;;8.40;56.50;;;;;;5062140;28;20548;-52
2023/05/07 04:33:00;;;;;;;4.80;4.40;;;8.40;60.70;;;;;;5070800;28;20590;-52
2023/05/07 04:35:27;;;;;;;5.13;4.67;;;8.50;57.10;;;;;;5069387;28;20960;-51
2023/05/07 04:37:53;;;;;;;5.87;5.10;;;8.40;61.00;;;;;;5070049;28;20596;-53
2023/05/07 04:40:20;;;;;;;6.90;5.10;;;8.40;63.10;;;;;;5074109;28;20496;-51
2023/05/07 04:42:47;;;;;;;7.67;5.30;;;8.50;58.50;;;;;;5074944;28;20535;-52
2023/05/07 04:45:13;;;;;;;5.20;4.70;;;8.40;72.60;;;;;;5073383;28;20462;-52
2023/05/07 04:47:40;;;;;;;5.60;5.10;;;8.50;66.80;;;;;;5074448;28;20479;-52
2023/05/07 04:50:09;;;;;;;5.17;4.67;;;8.50;61.10;;;;;;5073621;28;20527;-52
2023/05/07 04:52:35;;;;;;;7.60;4.90;;;8.60;64.00;;;;;;5074793;28;20478;-52
2023/05/07 04:55:02;;;;;;;9.10;6.17;;;8.60;68.70;;;;;;5072205;28;20547;-52
2023/05/07 04:57:28;;;;;;;6.37;5.30;;;8.60;73.30;;;;;;5074476;28;20863;-53
2023/05/07 04:59:55;;;;;;;7.40;5.23;;;8.60;80.50;;;;;;5074654;28;20917;-53
2023/05/07 05:02:21;;;;;;;5.77;5.07;;;8.60;74.90;;;;;;5074315;28;20992;-53
2023/05/07 05:04:48;;;;;;;6.10;4.97;;;8.70;72.40;;;;;;5072314;28;20578;-52
2023/05/07 05:07:16;;;;;;;6.20;5.70;;;8.70;75.00;;;;;;5073234;28;20536;-51
2023/05/07 05:09:42;;;;;;;5.80;5.30;;;8.70;75.50;;;;;;5072838;28;20559;-52
2023/05/07 05:12:09;;;;;;;8.37;5.83;;;8.60;83.70;;;;;;5069340;28;21000;-52
2023/05/07 05:14:35;;;;;;;6.77;6.17;;;8.60;83.00;;;;;;5070578;28;21014;-52
2023/05/07 05:17:03;;;;;;;6.20;5.70;;;8.70;76.30;;;;;;5073743;28;20464;-52
2023/05/07 05:19:29;;;;;;;8.70;6.50;;;8.60;90.20;;;;;;5073640;28;20586;-53
2023/05/07 05:21:56;;;;;;;8.40;6.10;;;8.60;92.10;;;;;;5074856;28;20559;-51
2023/05/07 05:24:24;;;;;;;6.20;5.70;;;8.60;92.80;;;;;;5072302;28;20569;-51
2023/05/07 05:26:50;;;;;;;9.30;5.77;;;8.70;85.70;;;;;;5072602;28;21043;-51
2023/05/07 05:29:17;;;;;;;7.00;5.77;;;8.60;99.70;;;;;;5071518;28;20569;-53
2023/05/07 05:31:43;;;;;;;8.83;6.73;;;8.80;86.80;;;;;;5071183;28;20542;-51
2023/05/07 05:34:10;;;;;;;7.53;6.53;;;8.60;84.30;;;;;;5068240;28;20478;-51
2023/05/07 05:36:36;;;;;;;6.23;5.83;;;8.60;96.60;;;;;;5070316;28;20499;-52
2023/05/07 05:39:03;;;;;;;6.80;6.20;;;8.80;94.70;;;;;;5072655;28;20587;-52
2023/05/07 05:41:31;;;;;;;6.57;5.83;;;8.90;92.90;;;;;;5063780;28;20560;-53
2023/05/07 05:43:57;;;;;;;6.97;6.47;;;8.90;92.40;;;;;;5063251;28;20502;-51
2023/05/07 05:46:24;;;;;;;6.33;5.57;;;9.00;99.90;;;;;;5075574;28;21110;-51
2023/05/07 05:48:51;;;;;;;9.37;5.87;;;9.00;99.90;;;;;;5068249;28;20571;-50
2023/05/07 05:51:17;;;;;;;6.70;6.00;;;9.20;96.30;;;;;;5076348;28;20484;-55
2023/05/07 05:53:44;;;;;;;6.10;5.60;;;9.20;99.90;;;;;;5071200;28;20511;-52
2023/05/07 05:56:10;;;;;;;5.93;5.33;;;9.20;99.90;;;;;;5072885;28;20460;-51
2023/05/07 05:58:38;;;;;;;6.23;5.53;;;9.40;99.90;;;;;;5071156;28;20585;-51
2023/05/07 06:01:05;;;;;;;9.60;5.90;;;9.50;99.90;;;;;;5070936;28;20557;-51
2023/05/07 06:03:32;;;;;;;5.40;4.70;;;9.60;99.90;;;;;;5071837;28;20533;-52
2023/05/07 06:05:59;;;;;;;5.77;5.20;;;9.70;99.90;;;;;;5067412;28;20455;-50
2023/05/07 06:08:26;;;;;;;6.10;5.53;;;9.70;99.90;;;;;;5073635;28;20472;-52
2023/05/07 06:10:53;;;;;;;5.23;4.70;;;9.70;99.90;;;;;;5074415;28;21025;-52
2023/05/07 06:13:19;;;;;;;6.13;5.13;;;9.70;99.90;;;;;;5071939;28;21028;-52
2023/05/07 06:15:47;;;;;;;5.57;5.07;;;9.70;99.90;;;;;;5070874;28;20504;-52
2023/05/07 06:18:14;;;;;;;7.27;5.70;;;9.80;99.90;;;;;;5070334;28;20527;-54
2023/05/07 06:20:40;;;;;;;11.90;6.10;;;9.90;99.90;;;;;;5069888;28;20490;-50
2023/05/07 06:23:07;;;;;;;7.00;6.30;;;9.90;99.90;;;;;;5070203;28;20462;-50
2023/05/07 06:25:33;;;;;;;6.47;5.23;;;10.00;99.90;;;;;;5061600;28;20579;-52
2023/05/07 06:28:00;;;;;;;6.47;4.77;;;10.10;99.90;;;;;;5062787;28;20512;-56
2023/05/07 06:30:27;;;;;;;6.27;5.50;;;10.20;99.90;;;;;;5070145;28;20547;-53
2023/05/07 06:32:54;;;;;;;7.83;5.17;;;10.40;99.90;;;;;;5068101;28;20464;-54
2023/05/07 06:35:21;;;;;;;7.90;5.30;;;10.40;99.90;;;;;;5070711;28;21007;-50
2023/05/07 06:37:48;;;;;;;7.30;5.37;;;10.50;99.90;;;;;;5071064;28;20567;-54
2023/05/07 06:40:15;;;;;;;7.13;4.97;;;10.50;99.90;;;;;;5076166;28;20549;-51
2023/05/07 06:42:41;;;;;;;7.03;5.37;;;10.50;99.90;;;;;;5073539;28;20956;-50
2023/05/07 06:45:09;;;;;;;5.23;4.73;;;10.60;99.90;;;;;;5069327;28;20533;-50
2023/05/07 06:47:36;;;;;;;5.23;4.83;;;10.60;99.90;;;;;;5063880;28;20603;-49
2023/05/07 06:50:04;;;;;;;5.60;4.80;;;10.60;99.90;;;;;;5069442;28;20550;-50
2023/05/07 06:52:31;;;;;;;6.27;5.30;;;10.80;99.90;;;;;;5067670;28;20825;-50
2023/05/07 06:55:00;;;;;;;5.33;4.93;;;11.10;99.90;;;;;;5068349;28;20466;-50
2023/05/07 06:57:27;;;;;;;9.33;5.13;;;11.20;28.50;;;;;;5068431;28;20464;-51
2023/05/07 06:59:53;;;;;;;6.40;5.50;;;11.20;99.90;;;;;;5069619;28;20526;-53
2023/05/07 07:02:20;;;;;;;5.67;5.17;;;11.00;98.20;;;;;;5060416;28;20550;-50
2023/05/07 07:04:46;;;;;;;5.00;4.60;;;10.90;99.90;;;;;;5069379;28;21023;-49
2023/05/07 07:07:14;;;;;;;5.90;4.40;;;11.20;99.90;;;;;;5065893;28;20539;-50
2023/05/07 07:09:41;;;;;;;5.67;5.10;;;11.30;99.90;;;;;;5069107;28;20561;-51
2023/05/07 07:12:07;;;;;;;4.73;4.33;;;11.80;99.90;;;;;;5068229;28;20557;-54
2023/05/07 07:14:34;;;;;;;6.23;4.77;;;11.90;83.50;;;;;;5066819;28;20559;-50
2023/05/07 07:17:00;;;;;;;7.70;5.00;;;12.00;75.00;;;;;;5065429;28;20985;-49
2023/05/07 07:19:27;;;;;;;4.67;4.30;;;11.80;57.90;;;;;;5064232;28;20544;-51
2023/05/07 07:21:54;;;;;;;4.67;4.37;;;11.80;39.70;;;;;;5068416;28;20530;-52
2023/05/07 07:24:21;;;;;;;4.87;4.17;;;11.60;70.40;;;;;;5070004;28;20564;-52
2023/05/07 07:26:48;;;;;;;4.73;4.13;;;11.70;77.30;;;;;;5066672;28;21001;-52
2023/05/07 07:29:15;;;;;;;4.23;3.83;;;11.70;54.10;;;;;;5064881;28;20582;-51
2023/05/07 07:31:41;;;;;;;3.90;3.60;;;11.80;59.90;;;;;;5061159;28;20494;-51
2023/05/07 07:34:08;;;;;;;5.30;3.77;;;11.70;84.20;;;;;;5067352;28;20532;-53
2023/05/07 07:36:34;;;;;;;4.40;4.00;;;11.80;71.50;;;;;;5066073;28;20590;-52
2023/05/07 07:39:01;;;;;;;4.13;3.80;;;12.00;82.10;;;;;;5065954;28;20488;-51
2023/05/07 07:41:29;;;;;;;3.77;3.47;;;12.00;70.20;;;;;;5067378;28;20455;-52
2023/05/07 07:43:56;;;;;;;4.60;3.87;;;11.80;82.30;;;;;;5070768;28;21403;-51
2023/05/07 07:46:22;;;;;;;5.90;4.30;;;12.00;78.70;;;;;;5070823;28;20993;-51
2023/05/07 07:48:49;;;;;;;4.40;4.00;;;11.80;76.80;;;;;;5071440;28;20554;-51
2023/05/07 07:51:15;;;;;;;3.60;3.30;;;11.90;69.50;;;;;;5070611;28;20499;-51
2023/05/07 07:53:42;;;;;;;2.80;2.70;;;12.00;80.90;;;;;;5067389;28;20495;-52
2023/05/07 07:56:08;;;;;;;3.03;2.93;;;12.00;85.20;;;;;;5065106;28;20559;-52
2023/05/07 07:58:37;;;;;;;5.43;3.27;;;11.80;99.90;;;;;;5071080;28;21026;-52
2023/05/07 08:01:04;;;;;;;4.03;2.90;;;12.10;98.70;;;;;;5070178;28;20488;-51
2023/05/07 08:03:32;;;;;;;3.20;3.00;;;12.10;99.90;;;;;;5071427;28;20451;-52
2023/05/07 08:05:59;;;;;;;3.03;2.80;;;12.30;99.90;;;;;;5070241;28;20996;-54
2023/05/07 08:08:26;;;;;;;3.27;2.73;;;12.30;99.90;;;;;;5076819;28;21000;-51
2023/05/07 08:10:52;;;;;;;7.50;3.20;;;12.50;99.90;;;;;;5069504;28;20468;-53
2023/05/07 08:13:19;;;;;;;3.23;2.97;;;12.60;99.90;;;;;;5076601;28;20472;-52
2023/05/07 08:15:47;;;;;;;3.63;2.70;;;12.80;37.10;;;;;;5074875;28;20462;-53
2023/05/07 08:18:14;;;;;;;3.17;2.60;;;13.20;28.30;;;;;;5074489;28;20568;-51
2023/05/07 08:20:42;;;;;;;5.27;3.27;;;12.80;52.90;;;;;;5076169;28;20460;-52
2023/05/07 08:23:08;;;;;;;5.70;3.17;;;13.40;48.30;;;;;;5074279;28;20460;-51
2023/05/07 08:25:35;;;;;;;4.23;3.40;;;13.40;80.80;;;;;;5074128;28;20571;-51
2023/05/07 08:28:03;;;;;;;7.30;2.30;;;13.50;85.90;;;;;;5062421;28;20487;-53
2023/05/07 08:30:29;;;;;;;2.90;2.70;;;13.50;99.90;;;;;;5076557;28;20946;-51
2023/05/07 08:32:57;;;;;;;3.10;2.80;;;13.90;84.60;;;;;;5073724;28;20530;-50
2023/05/07 08:35:25;;;;;;;2.43;2.33;;;14.10;99.90;;;;;;5072754;28;20542;-50
2023/05/07 08:37:51;;;;;;;3.00;2.47;;;14.30;99.90;;;;;;5070537;28;20492;-50
2023/05/07 08:40:18;;;;;;;2.60;2.50;;;13.80;99.90;;;;;;5065973;28;20490;-50
2023/05/07 08:42:46;;;;;;;2.90;2.60;;;13.90;99.90;;;;;;5075205;28;20483;-50
2023/05/07 08:45:12;;;;;;;3.03;2.70;;;14.40;99.90;;;;;;5068686;28;20921;-50
2023/05/07 08:47:45;;;;;;;4.97;2.67;;;14.50;99.90;;;;;;5070145;28;20614;-50
2023/05/07 08:50:13;;;;;;;7.13;2.57;;;14.20;99.90;;;;;;5076941;28;20453;-50
2023/05/07 08:52:40;;;;;;;2.90;2.63;;;14.40;99.90;;;;;;5077911;28;20524;-50
2023/05/07 08:55:09;;;;;;;10.00;2.47;;;15.30;99.90;;;;;;5092354;28;20525;-50
2023/05/07 08:57:36;;;;;;;3.63;2.97;;;15.40;99.90;;;;;;5080790;28;20465;-50
2023/05/07 09:00:03;;;;;;;3.73;2.90;;;15.00;99.90;;;;;;5069873;28;20452;-50
2023/05/07 09:02:30;;;;;;;3.37;3.07;;;14.90;99.90;;;;;;5062587;28;20579;-51
2023/05/07 09:04:56;;;;;;;3.47;2.77;;;14.40;99.90;;;;;;5075463;28;20512;-49
2023/05/07 09:07:25;;;;;;;2.70;2.53;;;15.00;99.90;;;;;;5077264;28;20539;-50
2023/05/07 09:09:52;;;;;;;3.17;2.97;;;15.60;99.90;;;;;;5062598;28;21027;-51
2023/05/07 09:12:19;;;;;;;3.70;3.40;;;15.50;99.90;;;;;;5057675;28;20539;-50
2023/05/07 09:14:46;;;;;;;4.97;3.10;;;15.50;99.90;;;;;;5074342;28;20461;-49
2023/05/07 09:17:13;;;;;;;3.37;3.00;;;14.70;99.90;;;;;;5066186;28;20977;-50
2023/05/07 09:19:39;;;;;;;3.03;2.63;;;15.50;99.90;;;;;;5068983;28;20575;-49
2023/05/07 09:22:07;;;;;;;3.10;2.80;;;15.00;99.90;;;;;;5073983;28;20535;-50
2023/05/07 09:24:37;;;;;;;3.07;2.87;;;15.80;99.90;;;;;;5074180;28;20489;-50
2023/05/07 09:27:05;;;;;;;3.07;2.87;;;15.40;99.90;;;;;;5066076;28;20447;-50
2023/05/07 09:29:35;;;;;;;4.43;3.00;;;15.20;99.90;;;;;;5074507;28;20468;-50
2023/05/07 09:32:02;;;;;;;3.63;2.70;;;14.80;99.90;;;;;;5074238;28;20487;-50
2023/05/07 09:34:29;;;;;;;5.73;2.90;;;14.50;99.90;;;;;;5073030;28;20509;-49
2023/05/07 09:36:56;;;;;;;9.10;3.10;;;14.70;99.90;;;;;;5055494;28;20533;-50
2023/05/07 09:39:23;;;;;;;2.73;2.50;;;15.40;99.90;;;;;;5064471;28;20484;-55
2023/05/07 09:41:54;;;;;;;3.10;2.90;;;15.40;99.90;;;;;;5071865;28;21037;-54
2023/05/07 09:44:21;;;;;;;16.17;3.13;;;16.10;99.90;;;;;;5073005;28;20891;-54
2023/05/07 09:46:53;;;;;;;4.50;2.77;;;17.50;99.90;;;;;;5074033;28;20536;-54
2023/05/07 09:49:22;;;;;;;4.33;2.20;;;16.50;99.90;;;;;;5074002;28;20554;-55
2023/05/07 09:51:50;;;;;;;5.90;2.10;;;16.10;99.90;;;;;;5072678;28;20448;-56
2023/05/07 09:54:17;;;;;;;3.37;2.47;;;15.80;99.90;;;;;;5053659;28;20960;-55
2023/05/07 09:56:45;;;;;;;2.40;2.20;;;14.90;99.90;;;;;;5070072;28;20551;-55
2023/05/07 09:59:15;;;;;;;2.67;2.47;;;14.70;99.90;;;;;;5073160;28;21037;-54
2023/05/07 10:01:42;;;;;;;7.00;2.77;;;14.50;99.90;;;;;;5073819;28;20449;-54
2023/05/07 10:04:10;;;;;;;6.13;3.30;;;14.60;99.90;;;;;;5073636;28;20448;-55
2023/05/07 10:06:37;;;;;;;2.20;2.00;;;16.00;99.90;;;;;;5073842;28;20527;-56
2023/05/07 10:09:05;;;;;;;2.53;2.33;;;15.80;99.90;;;;;;5069688;28;20556;-54
2023/05/07 10:11:33;;;;;;;2.20;2.00;;;16.40;99.90;;;;;;5064040;28;20465;-54
2023/05/07 10:14:01;;;;;;;3.47;2.67;;;15.70;99.90;;;;;;5071273;28;20472;-54
2023/05/07 10:16:32;;;;;;;3.30;3.00;;;15.70;99.90;;;;;;5069398;28;20452;-53
2023/05/07 10:18:59;;;;;;;4.60;2.90;;;15.10;99.90;;;;;;5066105;28;20571;-54
2023/05/07 10:21:31;;;;;;;4.30;2.77;;;15.40;99.90;;;;;;5063837;28;20974;-54
2023/05/07 10:24:00;;;;;;;5.43;3.83;;;15.10;99.90;;;;;;5067164;28;20449;-54
2023/05/07 10:26:29;;;;;;;5.53;5.03;;;14.40;99.90;;;;;;5070204;28;20488;-55
2023/05/07 10:29:01;;;;;;;7.37;5.00;;;14.70;99.90;;;;;;5064147;28;20547;-55
2023/05/07 10:31:46;;;;;;;5.17;4.07;;;14.60;99.90;;;;;;5066875;28;20552;-54
2023/05/07 10:34:17;;;;;;;3.83;3.47;;;15.10;99.90;;;;;;5070290;28;20572;-54
2023/05/07 10:36:45;;;;;;;3.20;3.00;;;15.90;99.90;;;;;;5067872;28;20548;-54
2023/05/07 10:39:11;;;;;;;2.97;2.70;;;16.60;99.90;;;;;;5070558;28;20580;-55
2023/05/07 10:41:38;;;;;;;6.73;5.53;;;15.80;99.90;;;;;;5066531;28;20523;-54
2023/05/07 10:44:05;;;;;;;14.83;8.70;;;16.30;99.90;;;;;;5065038;28;20547;-56
2023/05/07 10:46:35;;;;;;;7.87;4.50;;;15.80;99.90;;;;;;5066949;28;21010;-57
2023/05/07 10:49:10;;;;;;;3.07;2.73;;;15.80;99.90;;;;;;5066626;28;20563;-54
2023/05/07 10:51:36;;;;;;;4.13;3.07;;;15.40;99.90;;;;;;5063252;28;20482;-54
2023/05/07 10:54:23;;;;;;;2.87;2.60;;;16.10;99.90;;;;;;5064708;28;20560;-54
2023/05/07 10:56:50;;;;;;;1.97;1.87;;;16.30;99.90;;;;;;5067547;28;20467;-54
2023/05/07 10:59:41;;;;;;;6.60;2.07;;;16.70;99.90;;;;;;5066215;28;20508;-54
2023/05/07 11:02:11;;;;;;;2.50;2.30;;;17.20;99.90;;;;;;5066117;28;20480;-56
2023/05/07 11:04:38;;;;;;;2.53;2.33;;;17.20;99.90;;;;;;5072181;28;20450;-56
2023/05/07 11:07:33;;;;;;;3.37;2.17;;;16.80;99.90;;;;;;5071638;28;20447;-54
2023/05/07 11:10:03;;;;;;;3.83;3.10;;;16.10;99.90;;;;;;5071295;28;20537;-55
2023/05/07 11:12:50;;;;;;;2.50;2.30;;;16.40;99.90;;;;;;5072368;28;20896;-54
2023/05/07 11:15:43;;;;;;;2.23;2.07;;;16.50;99.90;;;;;;5071886;28;20876;-54
2023/05/07 11:18:12;;;;;;;2.03;1.93;;;16.70;99.90;;;;;;5064573;28;20462;-54
2023/05/07 11:20:55;;;;;;;3.13;1.73;;;17.10;99.90;;;;;;5069445;28;20528;-55
2023/05/07 11:23:55;;;;;;;1.83;1.73;;;16.40;99.90;;;;;;5067134;28;20539;-55
2023/05/07 11:26:23;;;;;;;3.97;2.40;;;17.00;99.90;;;;;;5067641;28;20567;-55
2023/05/07 11:28:50;;;;;;;7.38;1.50;;;17.40;99.90;;;;;;5070373;28;20896;-53
2023/05/07 11:31:23;;;;;;;1.53;1.43;;;18.70;99.90;;;;;;5072129;28;20199;-52
2023/05/07 11:33:51;;;;;;;3.27;1.80;;;18.50;99.90;;;;;;5068740;28;20469;-53
2023/05/07 11:36:18;;;;;;;9.90;2.40;;;16.80;99.90;;;;;;5065065;28;20559;-52
2023/05/07 11:38:45;;;;;;;5.13;2.00;;;16.20;99.90;;;;;;5068412;28;20477;-55
2023/05/07 11:41:12;;;;;;;4.10;2.27;;;16.60;99.90;;;;;;5070569;28;21003;-55
2023/05/07 11:43:39;;;;;;;1.90;1.80;;;16.70;99.90;;;;;;5071454;28;20445;-56
2023/05/07 11:46:09;;;;;;;3.00;1.97;;;16.60;99.90;;;;;;5066384;28;20477;-54
2023/05/07 11:48:36;;;;;;;1.67;1.50;;;16.90;99.90;;;;;;5068753;28;20519;-53
2023/05/07 11:51:05;;;;;;;4.60;2.03;;;17.90;99.90;;;;;;5072662;28;20987;-55
2023/05/07 11:53:37;;;;;;;4.50;1.70;;;18.20;99.90;;;;;;5071196;28;20441;-53
2023/05/07 11:56:07;;;;;;;1.93;1.70;;;18.90;99.90;;;;;;5060195;28;20889;-55
2023/05/07 11:58:34;;;;;;;2.17;1.80;;;19.60;99.90;;;;;;5067183;28;20562;-53
2023/05/07 12:01:00;;;;;;;2.87;2.00;;;20.10;99.90;;;;;;5062177;28;20487;-56
2023/05/07 12:03:27;;;;;;;2.33;2.00;;;20.10;99.90;;;;;;5071005;28;20490;-53
2023/05/07 12:05:54;;;;;;;1.80;1.60;;;20.30;99.90;;;;;;5066523;28;20481;-55
2023/05/07 12:08:23;;;;;;;1.97;1.77;;;19.70;99.90;;;;;;5065397;28;20983;-53
2023/05/07 12:10:50;;;;;;;9.13;2.20;;;20.20;99.90;;;;;;5057126;28;20544;-53
2023/05/07 12:13:17;;;;;;;2.13;1.70;;;19.80;99.90;;;;;;5071571;28;20479;-54
2023/05/07 12:15:44;;;;;;;6.03;1.53;;;19.40;99.90;;;;;;5067692;28;20556;-53
2023/05/07 12:18:12;;;;;;;1.90;1.80;;;19.60;99.90;;;;;;5070092;28;21264;-55
2023/05/07 12:20:38;;;;;;;2.10;2.00;;;20.00;99.90;;;;;;5071415;28;20995;-55
2023/05/07 12:23:05;;;;;;;3.80;1.70;;;19.60;99.90;;;;;;5071799;28;20534;-54
2023/05/07 12:25:35;;;;;;;5.63;1.80;;;19.60;99.90;;;;;;5070757;28;20572;-55
2023/05/07 12:28:02;;;;;;;2.83;1.40;;;19.60;99.90;;;;;;5061850;28;20838;-55
2023/05/07 12:30:29;;;;;;;4.27;1.80;;;20.10;99.90;;;;;;5064095;28;20544;-54
2023/05/07 12:32:56;;;;;;;1.87;1.77;;;19.40;99.90;;;;;;5069403;28;20481;-52
2023/05/07 12:35:29;;;;;;;1.87;1.77;;;19.20;99.90;;;;;;5071421;28;20536;-54
2023/05/07 12:37:56;;;;;;;3.37;1.80;;;19.10;99.90;;;;;;5068428;28;20572;-52
2023/05/07 12:40:23;;;;;;;2.43;1.87;;;19.70;99.90;;;;;;5065530;28;20457;-51
2023/05/07 12:42:55;;;;;;;8.03;1.67;;;19.90;99.90;;;;;;5060641;28;20999;-51
2023/05/07 12:45:21;;;;;;;1.77;1.63;;;19.10;99.90;;;;;;5063719;28;20472;-51
2023/05/07 12:47:48;;;;;;;2.10;1.67;;;18.30;99.90;;;;;;5065761;28;20584;-52
2023/05/07 12:50:15;;;;;;;1.60;1.50;;;18.50;99.90;;;;;;5069994;28;20543;-51
2023/05/07 12:52:43;;;;;;;4.93;1.90;;;19.10;99.90;;;;;;5073305;28;20528;-51